KCLW/CLW METAR and TAF weather

Enter ICAO airport designator
Station Type Date Time Source
KCLW METAR 2018/10/16 20:55 UTC NOAA

KCLW 162055Z AUTO 12005KT 10SM CLR 32/20 A3003 RMK AO2


Station Type Date Time Source
KCLW Decoded METAR 2018/10/16 20:55 UTC NOAA

Station name not available
Oct 16, 2018 - 04:55 PM EDT / 2018.10.16 2055 UTC
Wind: from the ESE (120 degrees) at 6 MPH (5 KT):0
Visibility: 10 mile(s):0
Sky conditions: clear
Temperature: 89 F (32 C)
Dew Point: 68 F (20 C)
Relative Humidity: 49%
Pressure (altimeter): 30.03 in. Hg (1016 hPa)
ob: KCLW 162055Z AUTO 12005KT 10SM CLR 32/20 A3003 RMK AO2
cycle: 21

Station Type Date Time Source
KCLW TAF UTC NOAA

Error!


Example: see airport list